Aeroporto :







RITROVATECI SU...

 
LOGIN :

Iscrizione | Disclaimer

   EN    FR    IT 

 









Sommario :    VFR   VFR Marginale   IFR   IFR Intensivo   IFR Molto Intensivo
Visibilità : 
Base nubi : 
>= 8 km
>= 3000ft
5 / 8 km
1000 / 3000 ft
1500m / 5 km
500 / 1000 ft
800 / 1500m
200 / 500 ft
< 800m
< 200 ft
Simboli :   Temporali  Nebbia  Neve Forte  Precipitazioni Forti  Vento > 20 kt






- Altitudine del aeroporto : 95 ft
- Codice IATA : GEO


SYCJ - Cheddi Jagan Int.

ULTIMO METAR :
  • 260100Z 24004KT 9000 TS FEW017CB SCT017 BKN080 24/24 Q1011 NOSIG RMK CB,LTNG SSW-W

METARs OBSOLETI :
  • 260000Z 17004KT 9000 TS FEW017CB SCT017 BKN080 24/24 Q1011 NOSIG RMK LTNG,CB SE-W
  • 252300Z 08006KT 9000 TS -SHRA FEW017CB SCT017 BKN080 25/24 Q1010 NOSIG RMK LTNG,CB E-W

TAF TAF SYCJ
Valido dal 26 a 00 ore il 27 a 00 ore UTC


252300Z 2600/2624 05004KT 9999 FEW014CB SCT016 BKN034
BECMG 2604/2606 VRB02KT 9999 SCT016 SCT06
BECMG 2610/2612 07010KT 9999 BKN019 SCT036
FIR SYGC / Sudamerica



MetMap, La meteo Aeronautica in un colpo d'occhio ! - Copyright ORBIFLY Dicembre 2007 - Disclaimer

ORBIFLY MET'MAP TEAM :

Programmazione e sviluppo : Alexandra Zaïnal
Concezione : Baudouin d'Aumeries
Aiuto per la programmazione : Marc-Olivier Méhu
Supporto tecnico e logistico : Manuel Goepfert
Aiuto per la traduzione : Arnaldo La Scala

Contatto : metmap@orbifly.com




FONTI E CREDITI :

   NOAA